createdAt,value
2016-04-02T00:00:09.610Z,0
2016-04-02T00:00:22.438Z,0
2016-04-02T00:01:41.505Z,0
2016-04-02T00:02:28.616Z,0
2016-04-02T00:03:48.135Z,0
2016-04-02T00:04:35.200Z,0
2016-04-02T00:06:20.737Z,0
2016-04-02T00:06:36.346Z,0
2016-04-02T00:08:30.273Z,0
2016-04-02T00:08:42.851Z,0
2016-04-02T00:10:45.497Z,0
2016-04-02T00:10:58.204Z,0
2016-04-02T00:11:58.096Z,0
2016-04-02T00:12:58.178Z,0
2016-04-02T00:13:58.149Z,0
2016-04-02T00:14:58.183Z,0
2016-04-02T00:16:10.936Z,0
2016-04-02T00:17:04.439Z,0
2016-04-02T00:18:17.425Z,0
2016-04-02T00:18:58.287Z,0
2016-04-02T00:21:04.340Z,0
2016-04-02T00:22:51.827Z,0
2016-04-02T00:23:30.080Z,0
2016-04-02T00:24:54.944Z,0
2016-04-02T00:25:33.210Z,0
2016-04-02T00:26:07.369Z,0
2016-04-02T00:27:07.528Z,0
2016-04-02T00:28:07.531Z,0
2016-04-02T00:29:20.408Z,0
2016-04-02T00:30:07.801Z,0
2016-04-02T00:31:20.960Z,0
2016-04-02T00:32:20.354Z,0
2016-04-02T00:33:33.293Z,0
2016-04-02T00:34:20.577Z,0
2016-04-02T00:35:39.601Z,0
2016-04-02T00:36:20.604Z,0
2016-04-02T00:38:10.312Z,0
2016-04-02T00:38:29.156Z,0
2016-04-02T00:39:42.127Z,0
2016-04-02T00:40:35.676Z,0
2016-04-02T00:41:48.587Z,0
2016-04-02T00:42:26.010Z,0
2016-04-02T00:44:19.970Z,0
2016-04-02T00:44:32.548Z,0
2016-04-02T00:46:38.834Z,0
2016-04-02T00:47:32.602Z,0
2016-04-02T00:48:34.120Z,0
2016-04-02T00:49:32.639Z,0
2016-04-02T00:50:35.688Z,0
2016-04-02T00:51:32.738Z,0
2016-04-02T00:52:45.397Z,0
2016-04-02T00:53:34.102Z,0
2016-04-02T00:54:32.683Z,0
2016-04-02T00:55:35.139Z,0
2016-04-02T00:56:32.751Z,0
2016-04-02T00:57:32.769Z,0
2016-04-02T00:58:45.552Z,0
2016-04-02T00:59:32.760Z,0
2016-04-02T01:00:58.468Z,0
2016-04-02T01:01:32.155Z,0
2016-04-02T01:02:52.064Z,0
2016-04-02T01:03:39.113Z,0
2016-04-02T01:04:45.741Z,0
2016-04-02T01:05:45.604Z,0
2016-04-02T01:06:58.562Z,0
2016-04-02T01:07:34.327Z,0
2016-04-02T01:09:48.146Z,0
2016-04-02T01:10:48.196Z,0
2016-04-02T01:12:00.920Z,0
2016-04-02T01:12:48.310Z,0
2016-04-02T01:14:13.893Z,0
2016-04-02T01:14:48.331Z,0
2016-04-02T01:16:45.227Z,0
2016-04-02T01:16:57.917Z,0
2016-04-02T01:18:29.247Z,0
2016-04-02T01:18:59.484Z,0
2016-04-02T01:19:58.581Z,0
2016-04-02T01:20:58.069Z,0
2016-04-02T01:22:10.759Z,0
2016-04-02T01:22:58.043Z,0
2016-04-02T01:24:23.733Z,0
2016-04-02T01:25:10.766Z,0
2016-04-02T01:26:23.738Z,0
2016-04-02T01:26:58.069Z,0
2016-04-02T01:27:58.088Z,0
2016-04-02T01:28:58.106Z,0
2016-04-02T01:30:10.889Z,0
2016-04-02T01:31:10.877Z,0
2016-04-02T01:31:58.161Z,0
2016-04-02T01:32:58.194Z,0
2016-04-02T01:34:10.869Z,0
2016-04-02T01:34:58.232Z,0
2016-04-02T01:36:17.484Z,0
2016-04-02T01:37:11.002Z,0
2016-04-02T01:38:23.927Z,0
2016-04-02T01:40:01.370Z,0
2016-04-02T01:41:52.919Z,0
2016-04-02T01:42:05.515Z,0
2016-04-02T01:43:56.021Z,0
2016-04-02T01:44:11.849Z,0
2016-04-02T01:46:11.229Z,0
2016-04-02T01:46:23.761Z,0
2016-04-02T01:47:23.889Z,0
2016-04-02T01:48:35.781Z,0
2016-04-02T01:49:25.237Z,0
2016-04-02T01:50:43.036Z,0
2016-04-02T01:51:23.867Z,0
2016-04-02T01:52:23.855Z,0
2016-04-02T01:53:23.873Z,0
2016-04-02T01:54:30.172Z,0
2016-04-02T01:55:36.706Z,0
2016-04-02T01:56:23.937Z,0
2016-04-02T01:57:49.631Z,0
2016-04-02T01:58:24.013Z,0
2016-04-02T01:59:55.254Z,0
2016-04-02T02:00:36.713Z,0
2016-04-02T02:01:23.975Z,0
2016-04-02T02:02:36.910Z,0
2016-04-02T02:03:23.956Z,0
2016-04-02T02:04:24.064Z,0
2016-04-02T02:05:36.750Z,0
2016-04-02T02:06:36.766Z,0
2016-04-02T02:07:42.923Z,0
2016-04-02T02:08:31.653Z,0
2016-04-02T02:09:24.060Z,0
2016-04-02T02:10:27.092Z,0
2016-04-02T02:11:24.891Z,0
2016-04-02T02:12:30.363Z,0
2016-04-02T02:13:24.740Z,0
2016-04-02T02:14:24.140Z,0
2016-04-02T02:15:24.159Z,0
2016-04-02T02:16:36.896Z,0
2016-04-02T02:17:24.836Z,0
2016-04-02T02:18:37.525Z,0
2016-04-02T02:19:24.215Z,0
2016-04-02T02:20:24.264Z,0
2016-04-02T02:21:25.657Z,0
2016-04-02T02:22:24.284Z,0
2016-04-02T02:23:24.303Z,0
2016-04-02T02:24:24.478Z,0
2016-04-02T02:25:24.917Z,0
2016-04-02T02:26:37.076Z,0
2016-04-02T02:27:25.768Z,0
2016-04-02T02:28:24.332Z,0
2016-04-02T02:29:24.382Z,0
2016-04-02T02:30:24.978Z,0
2016-04-02T02:31:30.762Z,0
2016-04-02T02:32:37.140Z,0
2016-04-02T02:33:24.440Z,0
2016-04-02T02:34:43.662Z,0
2016-04-02T02:35:37.211Z,0
2016-04-02T02:36:50.151Z,0
2016-04-02T02:37:24.311Z,0
2016-04-02T02:38:55.828Z,0
2016-04-02T02:39:30.769Z,0
2016-04-02T02:40:24.396Z,0
2016-04-02T02:41:24.572Z,0
2016-04-02T02:42:24.792Z,0
2016-04-02T02:43:24.623Z,0
2016-04-02T02:44:30.892Z,0
2016-04-02T02:45:24.613Z,0
2016-04-02T02:46:43.850Z,0
2016-04-02T02:47:24.666Z,0
2016-04-02T02:49:16.030Z,0
2016-04-02T02:49:31.639Z,0
2016-04-02T02:50:54.282Z,0
2016-04-02T02:51:28.629Z,0
2016-04-02T02:52:28.647Z,0
2016-04-02T02:53:34.962Z,0
2016-04-02T02:54:29.277Z,0
2016-04-02T02:56:19.221Z,0
2016-04-02T02:56:50.362Z,0
2016-04-02T02:57:31.286Z,0
2016-04-02T02:58:31.163Z,0
2016-04-02T02:59:31.276Z,0
2016-04-02T03:00:31.200Z,0
2016-04-02T03:01:38.125Z,0
2016-04-02T03:02:31.237Z,0
2016-04-02T03:03:50.458Z,0
2016-04-02T03:04:31.259Z,0
2016-04-02T03:05:31.261Z,0
2016-04-02T03:06:31.935Z,0
2016-04-02T03:07:31.892Z,0
2016-04-02T03:08:37.660Z,0
2016-04-02T03:09:32.772Z,0
2016-04-02T03:10:31.993Z,0
2016-04-02T03:11:44.105Z,0
2016-04-02T03:12:31.436Z,0
2016-04-02T03:13:50.611Z,0
2016-04-02T03:14:31.456Z,0
2016-04-02T03:15:31.428Z,0
2016-04-02T03:16:31.461Z,0
2016-04-02T03:17:31.480Z,0
2016-04-02T03:18:44.202Z,0
2016-04-02T03:19:31.517Z,0
2016-04-02T03:20:50.708Z,0
2016-04-02T03:21:31.522Z,0
2016-04-02T03:22:50.963Z,0
2016-04-02T03:23:31.543Z,0
2016-04-02T03:25:28.565Z,0
2016-04-02T03:26:00.315Z,0
2016-04-02T03:26:41.129Z,0
2016-04-02T03:28:12.632Z,0
2016-04-02T03:28:53.916Z,0
2016-04-02T03:30:53.954Z,0
2016-04-02T03:31:42.471Z,0
2016-04-02T03:32:41.849Z,0
2016-04-02T03:33:41.336Z,0
2016-04-02T03:34:41.260Z,0
2016-04-02T03:35:48.170Z,0
2016-04-02T03:36:41.298Z,0
2016-04-02T03:37:44.362Z,0
2016-04-02T03:38:41.303Z,0
2016-04-02T03:40:00.664Z,0
2016-04-02T03:40:54.230Z,0
2016-04-02T03:42:51.095Z,0
2016-04-02T03:43:03.673Z,0
2016-04-02T03:44:03.660Z,0
2016-04-02T03:45:10.022Z,0
2016-04-02T03:46:03.697Z,0
2016-04-02T03:47:16.481Z,0
2016-04-02T03:48:04.374Z,0
2016-04-02T03:49:10.111Z,0
2016-04-02T03:50:05.207Z,0
2016-04-02T03:51:16.600Z,0
2016-04-02T03:52:03.993Z,0
2016-04-02T03:53:23.015Z,0
2016-04-02T03:54:03.843Z,0
2016-04-02T03:55:23.129Z,0
2016-04-02T03:56:03.832Z,0
2016-04-02T03:57:29.557Z,0
2016-04-02T03:58:03.901Z,0
2016-04-02T03:59:03.919Z,0
2016-04-02T04:00:04.218Z,0
2016-04-02T04:01:10.205Z,0
2016-04-02T04:02:10.348Z,0
2016-04-02T04:03:03.960Z,0
2016-04-02T04:04:04.151Z,0
2016-04-02T04:05:10.357Z,0
2016-04-02T04:06:16.766Z,0
2016-04-02T04:07:04.035Z,0
2016-04-02T04:08:16.756Z,0
2016-04-02T04:09:04.056Z,0
2016-04-02T04:10:16.824Z,0
2016-04-02T04:11:10.389Z,0
2016-04-02T04:12:18.251Z,0
2016-04-02T04:13:23.350Z,0
2016-04-02T04:14:03.506Z,0
2016-04-02T04:15:04.165Z,0
2016-04-02T04:16:04.808Z,0
2016-04-02T04:17:04.217Z,0
2016-04-02T04:18:16.922Z,0
2016-04-02T04:19:10.378Z,0
2016-04-02T04:20:23.463Z,0
2016-04-02T04:21:16.963Z,0
2016-04-02T04:23:01.249Z,0
2016-04-02T04:23:26.721Z,0
2016-04-02T04:24:45.130Z,0
2016-04-02T04:25:33.022Z,0
2016-04-02T04:26:13.866Z,0
2016-04-02T04:27:33.137Z,0
2016-04-02T04:28:13.887Z,0
2016-04-02T04:29:39.595Z,0
2016-04-02T04:30:14.111Z,0
2016-04-02T04:31:39.617Z,0
2016-04-02T04:32:14.132Z,0
2016-04-02T04:33:45.278Z,0
2016-04-02T04:34:26.735Z,0
2016-04-02T04:35:14.047Z,0
2016-04-02T04:36:33.318Z,0
2016-04-02T04:37:14.037Z,0
2016-04-02T04:39:16.651Z,0
2016-04-02T04:39:54.873Z,0
2016-04-02T04:40:29.250Z,0
2016-04-02T04:42:00.550Z,0
2016-04-02T04:42:30.693Z,0
2016-04-02T04:43:29.259Z,0
2016-04-02T04:44:48.653Z,0
2016-04-02T04:45:35.764Z,0
2016-04-02T04:46:55.017Z,0
2016-04-02T04:47:30.770Z,0
2016-04-02T04:50:42.558Z,5
2016-04-02T04:50:55.136Z,5
2016-04-02T04:52:46.486Z,5
2016-04-02T04:53:02.064Z,5
2016-04-02T04:54:56.054Z,5
2016-04-02T04:55:27.916Z,5
2016-04-02T04:58:08.719Z,5
2016-04-02T04:58:43.065Z,5
2016-04-02T04:59:43.068Z,10
2016-04-02T05:00:55.992Z,10
2016-04-02T05:01:43.088Z,10
2016-04-02T05:03:33.687Z,10
2016-04-02T05:04:12.093Z,15
2016-04-02T05:06:52.898Z,15
2016-04-02T05:07:27.151Z,15
2016-04-02T05:09:24.219Z,20
2016-04-02T05:09:36.765Z,20
2016-04-02T05:11:34.380Z,25
2016-04-02T05:11:47.052Z,25
2016-04-02T05:12:46.962Z,25
2016-04-02T05:13:47.089Z,25
2016-04-02T05:14:59.733Z,30
2016-04-02T05:15:53.126Z,30
2016-04-02T05:16:47.003Z,35
2016-04-02T05:17:59.850Z,35
2016-04-02T05:18:47.055Z,35
2016-04-02T05:20:50.202Z,40
2016-04-02T05:22:56.317Z,45
2016-04-02T05:24:12.445Z,50
2016-04-02T05:24:59.510Z,50
2016-04-02T05:26:19.013Z,55
2016-04-02T05:26:53.280Z,55
2016-04-02T05:28:24.599Z,55
2016-04-02T05:29:06.099Z,60
2016-04-02T05:30:57.354Z,65
2016-04-02T05:31:35.574Z,65
2016-04-02T05:32:09.934Z,70
2016-04-02T05:34:14.549Z,75
2016-04-02T05:34:27.114Z,80
2016-04-02T05:36:29.854Z,85
2016-04-02T05:36:42.463Z,85
2016-04-02T05:37:42.435Z,90
2016-04-02T05:38:48.719Z,95
2016-04-02T05:39:48.737Z,95
2016-04-02T05:40:55.224Z,100
2016-04-02T05:41:55.258Z,105
2016-04-02T05:43:01.745Z,110
2016-04-02T05:44:08.232Z,115
2016-04-02T05:46:16.956Z,125
2016-04-02T05:47:16.943Z,130
2016-04-02T05:48:16.946Z,140
2016-04-02T05:49:29.748Z,140
2016-04-02T05:50:16.998Z,145
2016-04-02T05:51:36.286Z,150
2016-04-02T05:52:23.413Z,160
2016-04-02T05:53:42.728Z,165
2016-04-02T05:54:17.072Z,175
2016-04-02T05:55:42.827Z,195
2016-04-02T05:56:17.546Z,205
2016-04-02T05:58:19.723Z,245
2016-04-02T05:58:32.335Z,245
2016-04-02T05:59:51.525Z,265
2016-04-02T06:00:38.591Z,270
2016-04-02T06:01:32.344Z,285
2016-04-02T06:02:45.112Z,300
2016-04-02T06:03:38.646Z,325
2016-04-02T06:04:58.071Z,340
2016-04-02T06:05:45.198Z,345
2016-04-02T06:07:03.748Z,350
2016-04-02T06:07:32.484Z,350
2016-04-02T06:08:32.518Z,350
2016-04-02T06:09:32.521Z,380
2016-04-02T06:10:32.383Z,385
2016-04-02T06:11:38.776Z,385
2016-04-02T06:12:38.841Z,395
2016-04-02T06:13:45.297Z,405
2016-04-02T06:14:45.347Z,430
2016-04-02T06:15:32.615Z,425
2016-04-02T06:16:51.821Z,410
2016-04-02T06:17:32.637Z,395
2016-04-02T06:19:29.626Z,415
2016-04-02T06:19:42.376Z,410
2016-04-02T06:20:42.191Z,420
2016-04-02T06:21:42.241Z,440
2016-04-02T06:22:42.244Z,460
2016-04-02T06:23:42.293Z,450
2016-04-02T06:24:42.389Z,455
2016-04-02T06:25:42.344Z,455
2016-04-02T06:26:42.394Z,455
2016-04-02T06:27:42.382Z,440
2016-04-02T06:28:42.337Z,410
2016-04-02T06:29:42.418Z,400
2016-04-02T06:30:42.437Z,410
2016-04-02T06:31:42.439Z,450
2016-04-02T06:32:42.427Z,475
2016-04-02T06:33:42.476Z,485
2016-04-02T06:34:42.494Z,515
2016-04-02T06:35:42.543Z,510
2016-04-02T06:36:42.531Z,490
2016-04-02T06:37:42.549Z,470
2016-04-02T06:38:42.568Z,475
2016-04-02T06:39:42.680Z,480
2016-04-02T06:40:42.590Z,475
2016-04-02T06:41:42.623Z,460
2016-04-02T06:42:42.657Z,470
2016-04-02T06:43:42.660Z,490
2016-04-02T06:44:42.678Z,490
2016-04-02T06:45:42.681Z,515
2016-04-02T06:46:42.792Z,555
2016-04-02T06:47:42.764Z,585
2016-04-02T06:48:42.767Z,605
2016-04-02T06:49:42.769Z,625
2016-04-02T06:50:42.928Z,625
2016-04-02T06:51:42.883Z,620
2016-04-02T06:52:42.871Z,695
2016-04-02T06:53:42.842Z,725
2016-04-02T06:54:55.627Z,745
2016-04-02T06:55:42.880Z,760
2016-04-02T06:58:11.697Z,835
2016-04-02T06:58:46.027Z,865
2016-04-02T06:59:46.061Z,905
2016-04-02T07:00:52.486Z,955
2016-04-02T07:01:46.129Z,965
2016-04-02T07:02:46.085Z,970
2016-04-02T07:03:46.150Z,990
2016-04-02T07:04:46.137Z,990
2016-04-02T07:05:46.171Z,985
2016-04-02T07:06:46.190Z,965
2016-04-02T07:07:46.254Z,965
2016-04-02T07:08:52.524Z,955
2016-04-02T07:09:46.260Z,975
2016-04-02T07:10:59.138Z,1005
2016-04-02T07:11:46.344Z,995
2016-04-02T07:13:05.565Z,1000
2016-04-02T07:13:46.349Z,1005
2016-04-02T07:15:05.618Z,985
2016-04-02T07:15:46.417Z,1010
2016-04-02T07:17:05.623Z,1020
2016-04-02T07:17:52.751Z,1010
2016-04-02T07:18:46.737Z,1000
2016-04-02T07:19:48.084Z,1005
2016-04-02T07:20:46.728Z,970
2016-04-02T07:21:46.745Z,980
2016-04-02T07:22:59.342Z,1035
2016-04-02T07:23:46.705Z,1045
2016-04-02T07:24:59.441Z,1035
2016-04-02T07:25:46.678Z,1020
2016-04-02T07:26:46.743Z,1005
2016-04-02T07:27:46.761Z,950
2016-04-02T07:28:46.764Z,985
2016-04-02T07:29:46.767Z,1080
2016-04-02T07:30:46.927Z,1065
2016-04-02T07:31:46.835Z,1050
2016-04-02T07:32:46.885Z,1060
2016-04-02T07:33:46.902Z,1085
2016-04-02T07:34:46.905Z,1090
2016-04-02T07:35:46.174Z,1125
2016-04-02T07:36:46.974Z,1120
2016-04-02T07:37:47.007Z,1100
2016-04-02T07:38:46.979Z,1070
2016-04-02T07:39:47.028Z,1045
2016-04-02T07:40:47.046Z,1045
2016-04-02T07:41:47.081Z,1080
2016-04-02T07:42:47.115Z,1055
2016-04-02T07:43:47.134Z,990
2016-04-02T07:44:47.151Z,670
2016-04-02T07:45:47.232Z,390
2016-04-02T07:46:47.219Z,360
2016-04-02T07:47:47.253Z,345
2016-04-02T07:48:47.256Z,335
2016-04-02T07:49:47.305Z,335
2016-04-02T07:50:47.309Z,335
2016-04-02T07:51:47.358Z,325
2016-04-02T07:52:50.501Z,325
2016-04-02T07:53:47.379Z,320
2016-04-02T07:54:47.553Z,320
2016-04-02T07:55:47.447Z,315
2016-04-02T07:56:47.480Z,310
2016-04-02T07:57:47.483Z,310
2016-04-02T07:58:47.532Z,310
2016-04-02T07:59:47.582Z,310
2016-04-02T08:00:47.569Z,310
2016-04-02T08:01:47.572Z,310
2016-04-02T08:03:00.356Z,310
2016-04-02T08:03:47.484Z,310
2016-04-02T08:05:13.330Z,305
2016-04-02T08:05:54.036Z,305
2016-04-02T08:06:47.710Z,310
2016-04-02T08:08:00.432Z,310
2016-04-02T08:08:47.746Z,310
2016-04-02T08:09:47.765Z,310
2016-04-02T08:10:47.799Z,310
2016-04-02T08:11:47.864Z,310
2016-04-02T08:12:47.820Z,310
2016-04-02T08:13:47.870Z,310
2016-04-02T08:14:47.873Z,310
2016-04-02T08:15:47.876Z,310
2016-04-02T08:16:47.893Z,315
2016-04-02T08:17:47.975Z,305
2016-04-02T08:18:48.133Z,305
2016-04-02T08:19:47.980Z,305
2016-04-02T08:20:48.029Z,305
2016-04-02T08:21:48.032Z,305
2016-04-02T08:22:48.129Z,305
2016-04-02T08:23:48.678Z,305
2016-04-02T08:24:48.681Z,305
2016-04-02T08:25:48.121Z,305
2016-04-02T08:26:48.108Z,305
2016-04-02T08:27:48.297Z,305
2016-04-02T08:28:48.222Z,305
2016-04-02T08:29:48.272Z,305
2016-04-02T08:30:48.228Z,305
2016-04-02T08:31:48.294Z,300
2016-04-02T08:32:48.265Z,300
2016-04-02T08:33:48.268Z,300
2016-04-02T08:35:01.020Z,300
2016-04-02T08:35:48.335Z,300
2016-04-02T08:37:07.571Z,300
2016-04-02T08:37:48.324Z,300
2016-04-02T08:39:50.971Z,295
2016-04-02T08:40:29.270Z,295
2016-04-02T08:41:03.567Z,300
2016-04-02T08:43:06.182Z,290
2016-04-02T08:43:37.966Z,290
2016-04-02T08:44:18.795Z,285
2016-04-02T08:45:38.050Z,285
2016-04-02T08:46:18.846Z,280
2016-04-02T08:47:44.524Z,280
2016-04-02T08:48:18.899Z,280
2016-04-02T08:50:16.607Z,280
2016-04-02T08:50:29.172Z,275
2016-04-02T08:52:19.878Z,275
2016-04-02T08:52:32.459Z,275
2016-04-02T08:53:32.461Z,275
2016-04-02T08:54:45.230Z,275
2016-04-02T08:55:32.483Z,275
2016-04-02T08:56:51.751Z,275
2016-04-02T08:57:32.536Z,275
2016-04-02T08:59:29.541Z,270
2016-04-02T08:59:42.181Z,270
2016-04-02T09:01:13.558Z,270
2016-04-02T09:01:42.186Z,270
2016-04-02T09:02:42.173Z,270
2016-04-02T09:03:54.942Z,270
2016-04-02T09:04:54.991Z,270
2016-04-02T09:06:07.963Z,265
2016-04-02T09:06:42.371Z,270
2016-04-02T09:07:42.312Z,270
2016-04-02T09:08:55.048Z,265
2016-04-02T09:09:42.301Z,265
2016-04-02T09:11:08.007Z,265
2016-04-02T09:11:42.354Z,265
2016-04-02T09:12:42.388Z,270
2016-04-02T09:13:42.546Z,265
2016-04-02T09:14:42.409Z,265
2016-04-02T09:15:42.459Z,260
2016-04-02T09:16:42.477Z,260
2016-04-02T09:17:48.855Z,260
2016-04-02T09:18:42.514Z,260
2016-04-02T09:19:42.579Z,260
2016-04-02T09:20:42.534Z,260
2016-04-02T09:21:42.568Z,260
2016-04-02T09:22:42.586Z,255
2016-04-02T09:23:42.589Z,255
2016-04-02T09:24:42.686Z,255
2016-04-02T09:25:42.642Z,255
2016-04-02T09:26:42.661Z,255
2016-04-02T09:27:42.725Z,260
2016-04-02T09:28:42.916Z,255
2016-04-02T09:29:42.730Z,255
2016-04-02T09:30:42.811Z,255
2016-04-02T09:31:42.766Z,255
2016-04-02T09:32:49.051Z,255
2016-04-02T09:33:42.788Z,255
2016-04-02T09:34:55.572Z,245
2016-04-02T09:35:43.075Z,245
2016-04-02T09:36:42.858Z,245
2016-04-02T09:37:49.158Z,250
2016-04-02T09:38:42.895Z,250
2016-04-02T09:39:42.946Z,250
2016-04-02T09:40:42.776Z,250
2016-04-02T09:41:42.997Z,245
2016-04-02T09:42:43.015Z,250
2016-04-02T09:43:43.002Z,245
2016-04-02T09:44:42.990Z,245
2016-04-02T09:45:43.070Z,245
2016-04-02T09:46:43.104Z,245
2016-04-02T09:47:43.106Z,245
2016-04-02T09:48:43.751Z,245
2016-04-02T09:49:49.409Z,250
2016-04-02T09:50:43.146Z,250
2016-04-02T09:51:43.180Z,250
2016-04-02T09:52:43.605Z,250
2016-04-02T09:53:56.123Z,250
2016-04-02T09:54:43.531Z,250
2016-04-02T09:56:09.081Z,250
2016-04-02T09:56:43.459Z,250
2016-04-02T09:58:40.356Z,250
2016-04-02T09:58:52.934Z,250
2016-04-02T10:00:18.608Z,250
2016-04-02T10:00:53.095Z,250
2016-04-02T10:01:52.988Z,250
2016-04-02T10:02:54.444Z,250
2016-04-02T10:03:53.025Z,250
2016-04-02T10:04:53.044Z,250
2016-04-02T10:06:05.656Z,245
2016-04-02T10:06:53.111Z,245
2016-04-02T10:07:53.052Z,245
2016-04-02T10:08:53.148Z,240
2016-04-02T10:09:53.291Z,240
2016-04-02T10:10:53.168Z,240
2016-04-02T10:11:54.656Z,240
2016-04-02T10:12:53.268Z,240
2016-04-02T10:13:53.240Z,240
2016-04-02T10:14:53.305Z,240
2016-04-02T10:15:53.276Z,240
2016-04-02T10:16:53.295Z,240
2016-04-02T10:17:53.500Z,240
2016-04-02T10:18:53.690Z,240
2016-04-02T10:19:59.786Z,240
2016-04-02T10:20:53.680Z,240
2016-04-02T10:21:59.792Z,240
2016-04-02T10:22:53.654Z,240
2016-04-02T10:23:53.517Z,240
2016-04-02T10:24:53.675Z,240
2016-04-02T10:25:53.537Z,240
2016-04-02T10:26:53.664Z,235
2016-04-02T10:27:53.933Z,235
2016-04-02T10:28:53.920Z,235
2016-04-02T10:29:53.564Z,235
2016-04-02T10:30:53.583Z,235
2016-04-02T10:31:53.631Z,235
2016-04-02T10:32:53.619Z,235
2016-04-02T10:33:53.699Z,235
2016-04-02T10:34:53.671Z,235
2016-04-02T10:35:53.813Z,235
2016-04-02T10:36:53.738Z,235
2016-04-02T10:38:06.835Z,235
2016-04-02T10:38:53.807Z,235
2016-04-02T10:39:53.794Z,240
2016-04-02T10:40:53.812Z,235
2016-04-02T10:42:00.112Z,240
2016-04-02T10:42:53.990Z,235
2016-04-02T10:43:53.882Z,230
2016-04-02T10:44:53.901Z,230
2016-04-02T10:46:06.653Z,230
2016-04-02T10:46:54.078Z,230
2016-04-02T10:48:19.628Z,230
2016-04-02T10:48:54.006Z,230
2016-04-02T10:51:09.229Z,230
2016-04-02T10:52:09.248Z,225
2016-04-02T10:53:22.109Z,225
2016-04-02T10:54:09.270Z,225
2016-04-02T10:55:28.493Z,225
2016-04-02T10:56:09.306Z,225
2016-04-02T10:57:09.371Z,225
2016-04-02T10:58:09.342Z,230
2016-04-02T10:59:22.316Z,225
2016-04-02T11:00:09.378Z,225
2016-04-02T11:01:09.397Z,225
2016-04-02T11:02:09.446Z,225
2016-04-02T11:03:09.454Z,225
2016-04-02T11:04:09.539Z,225
2016-04-02T11:05:09.500Z,225
2016-04-02T11:06:09.492Z,225
2016-04-02T11:07:09.358Z,225
2016-04-02T11:08:22.231Z,225
2016-04-02T11:09:22.105Z,225
2016-04-02T11:10:35.242Z,225
2016-04-02T11:12:00.069Z,225
2016-04-02T11:12:43.976Z,225
2016-04-02T11:13:25.382Z,230
2016-04-02T11:14:12.711Z,230
2016-04-02T11:16:04.104Z,225
2016-04-02T11:16:16.698Z,225
2016-04-02T11:18:08.311Z,225
2016-04-02T11:18:21.030Z,225
2016-04-02T11:20:23.519Z,225
2016-04-02T11:20:36.146Z,225
2016-04-02T11:21:36.226Z,220
2016-04-02T11:22:36.151Z,225
2016-04-02T11:23:36.185Z,220
2016-04-02T11:24:42.501Z,220
2016-04-02T11:25:37.645Z,220
2016-04-02T11:26:48.990Z,225
2016-04-02T11:27:39.321Z,225
2016-04-02T11:28:55.511Z,220
2016-04-02T11:29:45.623Z,220
2016-04-02T11:31:02.001Z,220
2016-04-02T11:31:55.566Z,225
2016-04-02T11:33:39.634Z,225
2016-04-02T11:35:01.731Z,225
2016-04-02T11:36:27.390Z,225
2016-04-02T11:37:01.736Z,225
2016-04-02T11:39:04.382Z,225
2016-04-02T11:39:16.975Z,220
2016-04-02T11:41:14.184Z,220
2016-04-02T11:41:39.483Z,220
2016-04-02T11:42:39.580Z,220
2016-04-02T11:43:26.877Z,220
2016-04-02T11:45:58.885Z,220
2016-04-02T11:47:26.982Z,225
2016-04-02T11:48:05.296Z,225
2016-04-02T11:48:39.581Z,225
2016-04-02T11:50:42.368Z,220
2016-04-02T11:51:20.618Z,220
2016-04-02T11:51:54.996Z,220
2016-04-02T11:53:57.610Z,220
2016-04-02T11:54:35.862Z,220
2016-04-02T11:55:29.425Z,220
2016-04-02T11:58:12.855Z,220
2016-04-02T11:58:25.448Z,220
2016-04-02T12:00:15.985Z,220
2016-04-02T12:00:54.364Z,220
2016-04-02T12:01:28.645Z,220
2016-04-02T12:02:59.947Z,215
2016-04-02T12:03:41.355Z,215
2016-04-02T12:04:29.261Z,215
2016-04-02T12:06:25.642Z,215
2016-04-02T12:06:38.269Z,210
2016-04-02T12:07:38.225Z,210
2016-04-02T12:08:38.321Z,215
2016-04-02T12:09:51.215Z,215
2016-04-02T12:10:38.327Z,215
2016-04-02T12:11:57.564Z,215
2016-04-02T12:12:38.349Z,215
2016-04-02T12:14:47.947Z,215
2016-04-02T12:16:07.185Z,215
2016-04-02T12:16:47.968Z,215
2016-04-02T12:17:48.019Z,215
2016-04-02T12:18:48.037Z,215
2016-04-02T12:19:54.305Z,215
2016-04-02T12:20:48.338Z,210
2016-04-02T12:21:54.513Z,210
2016-04-02T12:22:48.141Z,210
2016-04-02T12:23:48.175Z,215
2016-04-02T12:24:48.287Z,215
2016-04-02T12:25:48.180Z,215
2016-04-02T12:26:48.105Z,215
2016-04-02T12:27:48.529Z,215
2016-04-02T12:28:48.423Z,220
2016-04-02T12:29:48.567Z,230
2016-04-02T12:30:48.459Z,225
2016-04-02T12:31:48.478Z,220
2016-04-02T12:32:48.417Z,215
2016-04-02T12:34:01.123Z,215
2016-04-02T12:34:48.469Z,210
2016-04-02T12:36:51.522Z,210
2016-04-02T12:39:01.106Z,215
2016-04-02T12:40:52.471Z,215
2016-04-02T12:41:05.033Z,215
2016-04-02T12:42:56.430Z,210
2016-04-02T12:43:08.977Z,210
2016-04-02T12:45:13.044Z,210
2016-04-02T12:45:25.716Z,205
2016-04-02T12:46:25.641Z,205
2016-04-02T12:47:38.490Z,205
2016-04-02T12:48:26.536Z,205
2016-04-02T12:49:44.916Z,205
2016-04-02T12:50:27.213Z,205
2016-04-02T12:52:22.765Z,210
2016-04-02T12:53:45.052Z,205
2016-04-02T12:54:03.927Z,205
2016-04-02T12:54:57.649Z,205
2016-04-02T12:56:48.185Z,205
2016-04-02T12:57:26.514Z,205
2016-04-02T12:58:13.548Z,205
2016-04-02T12:59:27.065Z,205
2016-04-02T13:00:51.399Z,205
2016-04-02T13:02:14.636Z,205
2016-04-02T13:03:29.889Z,205
2016-04-02T13:04:42.582Z,205
2016-04-02T13:05:42.506Z,205
2016-04-02T13:06:55.259Z,205
2016-04-02T13:07:42.543Z,205
2016-04-02T13:09:08.311Z,205
2016-04-02T13:09:42.595Z,205
2016-04-02T13:10:42.677Z,205
2016-04-02T13:11:42.836Z,205
2016-04-02T13:12:42.666Z,210
2016-04-02T13:13:42.856Z,205
2016-04-02T13:14:42.843Z,205
2016-04-02T13:15:42.908Z,205
2016-04-02T13:16:55.520Z,205
2016-04-02T13:17:43.445Z,205
2016-04-02T13:19:33.291Z,205
2016-04-02T13:20:05.091Z,205
2016-04-02T13:20:45.891Z,205
2016-04-02T13:21:45.909Z,205
2016-04-02T13:22:46.068Z,205
2016-04-02T13:23:45.961Z,205
2016-04-02T13:24:45.979Z,205
2016-04-02T13:25:46.028Z,210
2016-04-02T13:26:46.015Z,210
2016-04-02T13:27:46.065Z,210
2016-04-02T13:28:46.100Z,210
2016-04-02T13:29:46.118Z,205
2016-04-02T13:30:46.121Z,205
2016-04-02T13:31:46.170Z,205
2016-04-02T13:32:46.173Z,205
2016-04-02T13:33:52.456Z,205
2016-04-02T13:34:58.991Z,205
2016-04-02T13:35:46.306Z,210
2016-04-02T13:36:46.262Z,210
2016-04-02T13:37:46.296Z,210
2016-04-02T13:38:46.298Z,210
2016-04-02T13:39:46.333Z,210
2016-04-02T13:40:52.632Z,210
2016-04-02T13:41:46.385Z,210
2016-04-02T13:43:05.652Z,210
2016-04-02T13:43:46.421Z,215
2016-04-02T13:45:43.411Z,210
2016-04-02T13:45:55.974Z,210
2016-04-02T13:46:56.039Z,210
2016-04-02T13:47:56.072Z,210
2016-04-02T13:48:56.060Z,210
2016-04-02T13:50:08.781Z,210
2016-04-02T13:51:02.377Z,215
2016-04-02T13:52:08.864Z,210
2016-04-02T13:53:08.929Z,210
2016-04-02T13:54:15.588Z,210
2016-04-02T13:55:15.435Z,210
2016-04-02T13:56:27.360Z,210
2016-04-02T13:57:16.893Z,210
2016-04-02T13:58:27.553Z,210
2016-04-02T13:58:56.305Z,210
2016-04-02T13:59:56.308Z,210
2016-04-02T14:00:56.357Z,215
2016-04-02T14:02:02.701Z,215
2016-04-02T14:03:02.499Z,215
2016-04-02T14:03:56.413Z,215
2016-04-02T14:05:02.828Z,220
2016-04-02T14:06:09.163Z,220
2016-04-02T14:06:56.509Z,215
2016-04-02T14:08:47.045Z,215
2016-04-02T14:08:59.764Z,215
2016-04-02T14:10:58.067Z,215
2016-04-02T14:11:10.661Z,215
2016-04-02T14:13:13.932Z,210
2016-04-02T14:13:29.386Z,210
2016-04-02T14:14:26.622Z,210
2016-04-02T14:15:29.609Z,200
2016-04-02T14:16:39.302Z,200
2016-04-02T14:17:26.599Z,205
2016-04-02T14:19:29.635Z,230
2016-04-02T14:19:42.200Z,235
2016-04-02T14:20:54.985Z,245
2016-04-02T14:21:42.519Z,250
2016-04-02T14:23:01.552Z,250
2016-04-02T14:23:42.321Z,245
2016-04-02T14:25:01.776Z,230
2016-04-02T14:25:48.623Z,225
2016-04-02T14:27:39.362Z,220
2016-04-02T14:27:52.253Z,220
2016-04-02T14:29:48.946Z,215
2016-04-02T14:30:01.509Z,215
2016-04-02T14:31:32.840Z,215
2016-04-02T14:32:01.593Z,220
2016-04-02T14:33:01.579Z,215
2016-04-02T14:34:01.817Z,215
2016-04-02T14:35:07.912Z,210
2016-04-02T14:36:07.915Z,210
2016-04-02T14:37:03.090Z,210
2016-04-02T14:38:14.437Z,210
2016-04-02T14:39:03.127Z,210
2016-04-02T14:40:14.473Z,210